createdAt,value
2019-03-18T00:00:07.944Z,4.67
2019-03-18T00:02:37.426Z,5.57
2019-03-18T00:05:07.012Z,5.73
2019-03-18T00:07:36.508Z,6.00
2019-03-18T00:10:06.473Z,5.80
2019-03-18T00:12:36.015Z,6.63
2019-03-18T00:15:05.677Z,5.87
2019-03-18T00:17:35.136Z,6.43
2019-03-18T00:20:04.645Z,6.00
2019-03-18T00:22:33.550Z,6.33
2019-03-18T00:25:02.975Z,6.47
2019-03-18T00:27:32.489Z,6.70
2019-03-18T00:30:01.970Z,6.17
2019-03-18T00:32:31.418Z,6.50
2019-03-18T00:35:00.878Z,6.37
2019-03-18T00:37:30.319Z,6.30
2019-03-18T00:40:00.034Z,5.80
2019-03-18T00:42:29.519Z,5.83
2019-03-18T00:44:59.014Z,5.90
2019-03-18T00:47:28.460Z,6.07
2019-03-18T00:49:57.914Z,5.57
2019-03-18T00:52:26.722Z,5.90
2019-03-18T00:54:56.560Z,5.23
2019-03-18T00:57:26.027Z,6.00
2019-03-18T00:59:55.504Z,5.93
2019-03-18T01:02:24.995Z,5.67
2019-03-18T01:04:54.443Z,5.97
2019-03-18T01:07:23.902Z,5.97
2019-03-18T01:09:53.369Z,5.50
2019-03-18T01:12:22.832Z,6.00
2019-03-18T01:14:52.317Z,6.37
2019-03-18T01:17:21.828Z,6.87
2019-03-18T01:19:51.234Z,6.67
2019-03-18T01:22:20.679Z,6.50
2019-03-18T01:24:50.163Z,7.00
2019-03-18T01:27:19.688Z,6.90
2019-03-18T01:29:49.163Z,6.67
2019-03-18T01:32:18.607Z,6.90
2019-03-18T01:34:48.131Z,7.27
2019-03-18T01:37:17.942Z,8.27
2019-03-18T01:39:47.389Z,8.30
2019-03-18T01:42:17.070Z,9.00
2019-03-18T01:44:46.512Z,8.70
2019-03-18T01:47:15.977Z,9.77
2019-03-18T01:49:45.507Z,9.27
2019-03-18T01:52:14.936Z,9.63
2019-03-18T01:54:44.411Z,9.57
2019-03-18T01:57:13.876Z,9.37
2019-03-18T01:59:43.336Z,9.00
2019-03-18T02:02:12.812Z,8.57
2019-03-18T02:04:42.350Z,9.10
2019-03-18T02:07:11.770Z,8.90
2019-03-18T02:09:41.198Z,9.37
2019-03-18T02:12:10.691Z,9.67
2019-03-18T02:14:40.219Z,9.63
2019-03-18T02:17:09.651Z,9.90
2019-03-18T02:19:39.093Z,9.30
2019-03-18T02:22:08.561Z,9.27
2019-03-18T02:24:38.054Z,8.47
2019-03-18T02:27:07.667Z,8.57
2019-03-18T02:29:37.171Z,8.47
2019-03-18T02:32:06.612Z,8.47
2019-03-18T02:34:36.080Z,9.10
2019-03-18T02:37:05.505Z,9.17
2019-03-18T02:39:35.021Z,9.20
2019-03-18T02:42:04.461Z,8.50
2019-03-18T02:44:33.948Z,8.83
2019-03-18T02:47:03.433Z,9.20
2019-03-18T02:49:32.908Z,9.60
2019-03-18T02:52:02.394Z,10.63
2019-03-18T02:54:31.835Z,9.77
2019-03-18T02:57:01.341Z,10.00
2019-03-18T02:59:30.838Z,9.47
2019-03-18T03:02:00.348Z,9.10
2019-03-18T03:04:29.809Z,9.73
2019-03-18T03:06:59.257Z,9.77
2019-03-18T03:09:29.333Z,9.53
2019-03-18T03:11:58.819Z,10.37
2019-03-18T03:14:28.296Z,9.23
2019-03-18T03:16:57.719Z,8.77
2019-03-18T03:19:27.148Z,8.33
2019-03-18T03:21:56.625Z,8.10
2019-03-18T03:24:26.099Z,8.47
2019-03-18T03:26:55.641Z,8.17
2019-03-18T03:29:25.060Z,8.10
2019-03-18T03:31:54.769Z,9.23
2019-03-18T03:34:24.217Z,9.30
2019-03-18T03:36:53.710Z,10.63
2019-03-18T03:39:23.299Z,9.67
2019-03-18T03:41:52.781Z,9.77
2019-03-18T03:44:22.269Z,10.13
2019-03-18T03:46:51.734Z,10.03
2019-03-18T03:49:21.216Z,9.40
2019-03-18T03:51:50.722Z,10.37
2019-03-18T03:54:20.170Z,11.23
2019-03-18T03:56:49.673Z,11.00
2019-03-18T03:59:19.312Z,10.87
2019-03-18T04:01:48.897Z,10.43
2019-03-18T04:04:18.371Z,11.50
2019-03-18T04:06:47.836Z,11.37
2019-03-18T04:09:16.798Z,11.87
2019-03-18T04:11:46.319Z,12.23
2019-03-18T04:14:15.788Z,13.63
2019-03-18T04:16:55.931Z,13.40
2019-03-18T04:19:16.366Z,13.10
2019-03-18T04:21:45.876Z,12.47
2019-03-18T04:24:15.329Z,13.87
2019-03-18T04:26:44.796Z,14.27
2019-03-18T04:29:14.263Z,14.23
2019-03-18T04:31:43.719Z,14.27
2019-03-18T04:34:13.199Z,14.23
2019-03-18T04:36:42.695Z,14.73
2019-03-18T04:39:12.127Z,15.27
2019-03-18T04:41:41.665Z,15.43
2019-03-18T04:44:13.810Z,15.23
2019-03-18T04:46:43.311Z,15.40
2019-03-18T04:49:12.762Z,16.07
2019-03-18T04:51:42.268Z,14.97
2019-03-18T04:54:11.698Z,16.13
2019-03-18T04:56:41.189Z,13.53
2019-03-18T04:59:10.628Z,14.43
2019-03-18T05:01:40.058Z,12.40
2019-03-18T05:04:09.533Z,12.73
2019-03-18T05:06:39.181Z,12.53
2019-03-18T05:09:08.703Z,12.40
2019-03-18T05:11:38.190Z,11.83
2019-03-18T05:14:07.673Z,11.83
2019-03-18T05:16:37.177Z,11.40
2019-03-18T05:19:06.008Z,11.60
2019-03-18T05:21:35.526Z,10.70
2019-03-18T05:24:04.988Z,10.27
2019-03-18T05:26:34.484Z,11.50
2019-03-18T05:29:03.972Z,10.80
2019-03-18T05:31:33.431Z,11.23
2019-03-18T05:34:02.912Z,11.23
2019-03-18T05:36:32.389Z,11.00
2019-03-18T05:39:01.818Z,10.47
2019-03-18T05:41:31.656Z,10.00
2019-03-18T05:44:01.174Z,9.50
2019-03-18T05:46:30.656Z,9.90
2019-03-18T05:49:00.196Z,10.30
2019-03-18T05:51:29.616Z,9.60
2019-03-18T05:53:59.075Z,9.13
2019-03-18T05:56:28.610Z,9.80
2019-03-18T05:58:58.048Z,8.70
2019-03-18T06:01:27.490Z,8.87
2019-03-18T06:03:56.978Z,8.73
2019-03-18T06:06:26.455Z,9.03
2019-03-18T06:08:55.288Z,9.30
2019-03-18T06:11:24.774Z,7.90
2019-03-18T06:13:56.589Z,8.63
2019-03-18T06:16:25.410Z,8.80
2019-03-18T06:18:54.854Z,9.53
2019-03-18T06:21:24.280Z,8.83
2019-03-18T06:23:53.139Z,9.13
2019-03-18T06:26:22.742Z,8.33
2019-03-18T06:28:52.189Z,8.93
2019-03-18T06:31:21.688Z,8.53
2019-03-18T06:33:51.128Z,9.17
2019-03-18T06:36:21.005Z,8.43
2019-03-18T06:38:50.423Z,8.50
2019-03-18T06:41:19.913Z,8.37
2019-03-18T06:43:49.441Z,8.70
2019-03-18T06:46:18.859Z,8.53
2019-03-18T06:48:48.374Z,7.70
2019-03-18T06:51:17.857Z,8.90
2019-03-18T06:53:47.309Z,7.77
2019-03-18T06:56:16.787Z,7.07
2019-03-18T06:58:46.257Z,8.73
2019-03-18T07:01:15.771Z,8.87
2019-03-18T07:03:45.254Z,8.63
2019-03-18T07:06:14.696Z,8.87
2019-03-18T07:08:44.173Z,8.03
2019-03-18T07:11:13.769Z,7.90
2019-03-18T07:13:43.244Z,8.73
2019-03-18T07:16:12.751Z,7.83
2019-03-18T07:18:42.291Z,8.20
2019-03-18T07:21:14.522Z,7.40
2019-03-18T07:23:42.876Z,7.17
2019-03-18T07:26:12.386Z,7.10
2019-03-18T07:28:41.250Z,6.30
2019-03-18T07:31:10.757Z,8.00
2019-03-18T07:33:40.261Z,6.53
2019-03-18T07:36:09.692Z,6.93
2019-03-18T07:38:39.170Z,7.43
2019-03-18T07:41:08.953Z,6.13
2019-03-18T07:43:38.434Z,4.87
2019-03-18T07:46:07.874Z,4.53
2019-03-18T07:48:37.284Z,4.07
2019-03-18T07:51:06.968Z,4.53
2019-03-18T07:53:36.459Z,4.20
2019-03-18T07:56:05.958Z,3.67
2019-03-18T07:58:35.382Z,3.93
2019-03-18T08:01:04.855Z,3.80
2019-03-18T08:03:36.570Z,4.50
2019-03-18T08:06:05.652Z,4.40
2019-03-18T08:08:35.273Z,4.53
2019-03-18T08:11:05.124Z,5.07
2019-03-18T08:13:34.578Z,4.40
2019-03-18T08:16:04.034Z,4.27
2019-03-18T08:18:42.721Z,4.27
2019-03-18T08:21:04.598Z,4.23
2019-03-18T08:23:34.152Z,4.77
2019-03-18T08:26:03.599Z,4.20
2019-03-18T08:28:33.085Z,4.10
2019-03-18T08:31:02.556Z,3.97
2019-03-18T08:33:32.961Z,4.23
2019-03-18T08:36:02.458Z,4.10
2019-03-18T08:38:31.967Z,3.77
2019-03-18T08:41:01.476Z,4.23
2019-03-18T08:43:30.966Z,3.77
2019-03-18T08:46:00.428Z,4.33
2019-03-18T08:48:29.883Z,3.50
2019-03-18T08:50:59.454Z,3.27
2019-03-18T08:53:28.882Z,3.60
2019-03-18T08:55:58.353Z,4.67
2019-03-18T08:58:27.831Z,3.43
2019-03-18T09:00:59.465Z,3.87
2019-03-18T09:03:29.171Z,3.63
2019-03-18T09:05:58.640Z,3.90
2019-03-18T09:08:28.167Z,3.30
2019-03-18T09:10:57.680Z,3.17
2019-03-18T09:13:27.131Z,3.33
2019-03-18T09:15:56.599Z,3.60
2019-03-18T09:18:26.064Z,3.90
2019-03-18T09:20:55.819Z,3.63
2019-03-18T09:23:25.365Z,3.70
2019-03-18T09:25:54.837Z,3.23
2019-03-18T09:28:24.314Z,3.50
2019-03-18T09:30:53.841Z,2.90
2019-03-18T09:33:23.265Z,3.67
2019-03-18T09:35:52.733Z,3.00
2019-03-18T09:38:22.311Z,3.60
2019-03-18T09:40:51.844Z,2.97
2019-03-18T09:43:21.285Z,3.50
2019-03-18T09:45:50.774Z,3.20
2019-03-18T09:48:20.233Z,4.20
2019-03-18T09:50:49.710Z,3.80
2019-03-18T09:53:19.186Z,3.37
2019-03-18T09:55:48.689Z,2.43
2019-03-18T09:58:18.104Z,2.67
2019-03-18T10:00:47.602Z,2.43
2019-03-18T10:03:17.093Z,3.00
2019-03-18T10:05:46.519Z,2.40
2019-03-18T10:08:16.020Z,3.10
2019-03-18T10:10:45.698Z,2.90
2019-03-18T10:13:15.161Z,2.23
2019-03-18T10:15:44.594Z,2.40
2019-03-18T10:18:14.068Z,3.40
2019-03-18T10:20:43.534Z,2.90
2019-03-18T10:23:14.817Z,2.90
2019-03-18T10:25:44.346Z,2.97
2019-03-18T10:28:16.434Z,3.13
2019-03-18T10:30:46.418Z,2.70
2019-03-18T10:33:17.309Z,3.17
2019-03-18T10:35:46.757Z,3.03
2019-03-18T10:38:16.223Z,3.07
2019-03-18T10:40:45.638Z,3.00
2019-03-18T10:43:15.134Z,2.47
2019-03-18T10:45:46.706Z,2.57
2019-03-18T10:48:16.247Z,2.60
2019-03-18T10:50:45.841Z,2.43
2019-03-18T10:53:15.399Z,2.43
2019-03-18T10:55:44.872Z,3.60
2019-03-18T10:58:14.354Z,2.53
2019-03-18T11:00:43.798Z,2.87
2019-03-18T11:03:12.635Z,2.60
2019-03-18T11:05:42.256Z,2.50
2019-03-18T11:08:13.369Z,2.73
2019-03-18T11:10:44.205Z,2.73
2019-03-18T11:13:14.438Z,2.33
2019-03-18T11:15:43.875Z,2.57
2019-03-18T11:18:13.326Z,2.37
2019-03-18T11:20:43.009Z,2.00
2019-03-18T11:23:12.454Z,2.33
2019-03-18T11:25:41.933Z,1.97
2019-03-18T11:28:11.418Z,1.80
2019-03-18T11:30:40.975Z,1.37
2019-03-18T11:33:10.459Z,1.70
2019-03-18T11:35:39.934Z,2.17
2019-03-18T11:38:09.489Z,1.57
2019-03-18T11:40:38.980Z,1.90
2019-03-18T11:43:08.450Z,1.90
2019-03-18T11:45:37.940Z,1.87
2019-03-18T11:48:07.371Z,2.30
2019-03-18T11:50:36.819Z,2.10
2019-03-18T11:53:14.338Z,1.73
2019-03-18T11:55:36.738Z,1.60
2019-03-18T11:58:06.216Z,1.50
2019-03-18T12:00:35.706Z,1.90
2019-03-18T12:03:05.160Z,1.73
2019-03-18T12:05:34.659Z,2.33
2019-03-18T12:08:04.168Z,1.73
2019-03-18T12:10:33.720Z,1.87
2019-03-18T12:13:04.765Z,1.73
2019-03-18T12:15:36.423Z,2.03
2019-03-18T12:18:05.349Z,1.90
2019-03-18T12:20:34.842Z,1.87
2019-03-18T12:23:03.662Z,2.37
2019-03-18T12:25:34.057Z,2.47
2019-03-18T12:28:05.355Z,2.00
2019-03-18T12:30:35.095Z,1.90
2019-03-18T12:33:05.665Z,2.67
2019-03-18T12:35:35.086Z,2.13
2019-03-18T12:38:04.523Z,2.33
2019-03-18T12:40:33.987Z,2.63
2019-03-18T12:43:03.440Z,2.60
2019-03-18T12:45:32.950Z,2.00
2019-03-18T12:48:01.848Z,2.30
2019-03-18T12:50:43.517Z,2.33
2019-03-18T12:53:02.079Z,2.77
2019-03-18T12:55:31.574Z,2.20
2019-03-18T12:58:01.053Z,2.00
2019-03-18T13:00:30.566Z,2.07
2019-03-18T13:03:00.002Z,1.80
2019-03-18T13:05:29.522Z,2.47
2019-03-18T13:07:59.216Z,1.70
2019-03-18T13:10:28.944Z,1.80
2019-03-18T13:12:58.415Z,1.47
2019-03-18T13:15:27.883Z,1.43
2019-03-18T13:17:57.354Z,0.97
2019-03-18T13:20:26.816Z,1.00
2019-03-18T13:22:56.324Z,1.40
2019-03-18T13:25:25.807Z,1.37
2019-03-18T13:27:55.309Z,1.03
2019-03-18T13:30:24.802Z,1.20
2019-03-18T13:32:54.258Z,1.07
2019-03-18T13:35:23.762Z,1.77
2019-03-18T13:37:53.232Z,1.83
2019-03-18T13:40:22.735Z,1.30
2019-03-18T13:42:52.225Z,1.80
2019-03-18T13:45:21.707Z,1.80
2019-03-18T13:47:51.211Z,2.10
2019-03-18T13:50:21.147Z,2.00
2019-03-18T13:52:50.651Z,2.27
2019-03-18T13:55:20.166Z,1.67
2019-03-18T13:57:49.637Z,2.00
2019-03-18T14:00:19.139Z,2.20
2019-03-18T14:02:48.583Z,2.17
2019-03-18T14:05:18.279Z,2.33
2019-03-18T14:07:59.582Z,2.10
2019-03-18T14:10:18.323Z,1.90
2019-03-18T14:12:47.782Z,2.57
2019-03-18T14:15:17.273Z,2.57
2019-03-18T14:17:46.737Z,1.90
2019-03-18T14:20:16.977Z,1.27
2019-03-18T14:22:45.836Z,1.27
2019-03-18T14:25:15.406Z,1.87
2019-03-18T14:27:44.894Z,2.13
2019-03-18T14:30:15.752Z,1.70
2019-03-18T14:32:45.377Z,1.97
2019-03-18T14:35:14.950Z,2.17
2019-03-18T14:37:44.414Z,1.77
2019-03-18T14:40:14.237Z,1.60
2019-03-18T14:42:43.790Z,1.70
2019-03-18T14:45:15.738Z,1.77
2019-03-18T14:47:46.907Z,1.93
2019-03-18T14:50:17.521Z,1.43
2019-03-18T14:52:47.076Z,2.30
2019-03-18T14:55:16.741Z,1.90
2019-03-18T14:57:48.547Z,2.00
2019-03-18T15:00:21.236Z,1.67
2019-03-18T15:02:50.886Z,2.40
2019-03-18T15:05:20.319Z,2.77
2019-03-18T15:07:49.747Z,2.10
2019-03-18T15:10:19.273Z,2.00
2019-03-18T15:12:48.746Z,1.97
2019-03-18T15:15:18.308Z,1.77
2019-03-18T15:17:47.850Z,2.27
2019-03-18T15:20:17.459Z,2.10
2019-03-18T15:22:47.987Z,2.10
2019-03-18T15:25:19.488Z,1.63
2019-03-18T15:27:48.931Z,1.93
2019-03-18T15:30:19.254Z,2.23
2019-03-18T15:32:48.810Z,2.00
2019-03-18T15:35:19.386Z,1.57
2019-03-18T15:37:48.812Z,1.70
2019-03-18T15:40:18.464Z,2.40
2019-03-18T15:42:47.937Z,2.40
2019-03-18T15:45:17.647Z,2.37
2019-03-18T15:47:47.184Z,1.97
2019-03-18T15:50:17.310Z,2.13
2019-03-18T15:52:46.779Z,2.13
2019-03-18T15:55:16.247Z,2.20
2019-03-18T15:57:45.682Z,2.43
2019-03-18T16:00:16.755Z,2.63
2019-03-18T16:02:47.247Z,1.70
2019-03-18T16:05:16.676Z,1.93
2019-03-18T16:07:48.717Z,2.43
2019-03-18T16:10:18.167Z,2.17
2019-03-18T16:12:48.496Z,2.43
2019-03-18T16:15:18.611Z,1.93
2019-03-18T16:17:50.000Z,2.30
2019-03-18T16:20:19.429Z,2.10
2019-03-18T16:22:48.928Z,2.13
2019-03-18T16:25:18.736Z,2.63
2019-03-18T16:27:52.999Z,2.10
2019-03-18T16:30:22.510Z,2.03
2019-03-18T16:32:52.061Z,2.30
2019-03-18T16:35:23.596Z,2.30
2019-03-18T16:37:53.145Z,2.40
2019-03-18T16:40:22.728Z,2.63
2019-03-18T16:42:52.281Z,2.33
2019-03-18T16:45:21.714Z,2.00
2019-03-18T16:47:51.232Z,2.13
2019-03-18T16:50:20.657Z,2.20
2019-03-18T16:52:50.132Z,1.93
2019-03-18T16:55:19.664Z,1.90
2019-03-18T16:57:53.781Z,2.13
2019-03-18T17:00:25.255Z,2.07
2019-03-18T17:02:54.755Z,1.87
2019-03-18T17:05:24.294Z,2.17
2019-03-18T17:07:54.450Z,2.07
2019-03-18T17:10:24.506Z,2.40
2019-03-18T17:12:58.993Z,1.60
2019-03-18T17:15:28.486Z,1.90
2019-03-18T17:17:57.943Z,2.83
2019-03-18T17:20:30.044Z,2.23
2019-03-18T17:22:59.844Z,1.90
2019-03-18T17:25:30.872Z,2.47
2019-03-18T17:28:00.339Z,2.20
2019-03-18T17:30:29.752Z,2.20
2019-03-18T17:33:03.057Z,2.27
2019-03-18T17:35:32.467Z,2.10
2019-03-18T17:38:01.963Z,3.03
2019-03-18T17:40:32.939Z,2.70
2019-03-18T17:43:04.796Z,2.97
2019-03-18T17:45:34.247Z,2.47
2019-03-18T17:48:12.499Z,1.90
2019-03-18T17:50:41.961Z,2.20
2019-03-18T17:53:11.515Z,2.47
2019-03-18T17:55:41.074Z,2.37
2019-03-18T17:58:12.495Z,2.50
2019-03-18T18:00:45.576Z,1.97
2019-03-18T18:03:16.116Z,2.03
2019-03-18T18:06:22.328Z,2.13
2019-03-18T18:09:13.125Z,2.30
2019-03-18T18:14:50.101Z,2.20
2019-03-18T18:17:19.597Z,2.07
2019-03-18T18:19:49.138Z,2.20
2019-03-18T18:22:18.721Z,2.50
2019-03-18T18:24:48.178Z,3.17
2019-03-18T18:27:19.107Z,3.07
2019-03-18T18:29:48.901Z,2.43
2019-03-18T18:32:18.406Z,2.47
2019-03-18T18:34:47.239Z,2.63
2019-03-18T18:37:16.735Z,3.70
2019-03-18T18:39:47.369Z,2.00
2019-03-18T18:42:16.890Z,2.10
2019-03-18T18:44:46.348Z,2.17
2019-03-18T18:47:15.863Z,2.47
2019-03-18T18:49:45.332Z,1.97
2019-03-18T18:52:16.077Z,2.40
2019-03-18T18:54:45.572Z,2.57
2019-03-18T18:57:15.052Z,2.57
2019-03-18T18:59:44.483Z,2.13
2019-03-18T19:02:13.937Z,2.43
2019-03-18T19:04:43.356Z,2.40
2019-03-18T19:07:12.809Z,2.57
2019-03-18T19:09:42.342Z,2.90
2019-03-18T19:12:11.780Z,1.97
2019-03-18T19:14:41.279Z,2.63
2019-03-18T19:17:10.735Z,2.50
2019-03-18T19:19:40.237Z,3.10
2019-03-18T19:22:09.684Z,2.33
2019-03-18T19:24:39.175Z,2.73
2019-03-18T19:27:08.649Z,3.27
2019-03-18T19:29:38.102Z,2.43
2019-03-18T19:32:07.612Z,2.93
2019-03-18T19:34:37.103Z,2.37
2019-03-18T19:37:06.655Z,3.10
2019-03-18T19:39:36.105Z,2.63
2019-03-18T19:42:05.619Z,3.50
2019-03-18T19:44:35.120Z,3.17
2019-03-18T19:47:04.624Z,4.03
2019-03-18T19:49:33.432Z,3.43
2019-03-18T19:52:02.922Z,3.43
2019-03-18T19:54:32.417Z,2.70
2019-03-18T19:57:01.885Z,3.00
2019-03-18T19:59:31.347Z,3.03
2019-03-18T20:02:00.857Z,2.50
2019-03-18T20:04:30.330Z,3.13
2019-03-18T20:06:59.830Z,2.07
2019-03-18T20:09:29.306Z,1.97
2019-03-18T20:11:58.767Z,2.83
2019-03-18T20:14:28.258Z,2.27
2019-03-18T20:16:57.773Z,2.87
2019-03-18T20:19:27.251Z,2.90
2019-03-18T20:21:56.911Z,3.60
2019-03-18T20:24:26.351Z,2.83
2019-03-18T20:26:55.810Z,3.70
2019-03-18T20:29:25.293Z,3.80
2019-03-18T20:31:54.772Z,3.80
2019-03-18T20:34:24.283Z,3.00
2019-03-18T20:36:53.762Z,2.70
2019-03-18T20:39:22.568Z,2.33
2019-03-18T20:41:52.065Z,2.50
2019-03-18T20:44:21.538Z,2.30
2019-03-18T20:46:50.998Z,2.57
2019-03-18T20:49:20.439Z,3.00
2019-03-18T20:51:49.930Z,2.33
2019-03-18T20:54:19.395Z,2.73
2019-03-18T20:56:48.878Z,2.90
2019-03-18T20:59:18.307Z,2.97
2019-03-18T21:01:47.787Z,3.07
2019-03-18T21:04:17.378Z,2.50
2019-03-18T21:06:46.918Z,2.33
2019-03-18T21:09:16.375Z,2.40
2019-03-18T21:11:47.036Z,2.90
2019-03-18T21:14:16.535Z,2.90
2019-03-18T21:16:45.993Z,3.13
2019-03-18T21:19:15.508Z,2.53
2019-03-18T21:21:45.023Z,2.93
2019-03-18T21:24:22.649Z,3.27
2019-03-18T21:26:45.570Z,2.90
2019-03-18T21:29:15.104Z,2.93
2019-03-18T21:31:44.576Z,3.27
2019-03-18T21:34:14.094Z,3.27
2019-03-18T21:36:43.550Z,2.77
2019-03-18T21:39:13.134Z,2.70
2019-03-18T21:41:42.601Z,3.97
2019-03-18T21:44:12.142Z,2.73
2019-03-18T21:46:43.423Z,3.13
2019-03-18T21:49:12.779Z,2.70
2019-03-18T21:51:42.263Z,4.00
2019-03-18T21:54:11.725Z,2.80
2019-03-18T21:56:41.159Z,2.30
2019-03-18T21:59:10.666Z,2.27
2019-03-18T22:01:40.150Z,2.23
2019-03-18T22:04:09.632Z,3.23
2019-03-18T22:06:39.116Z,2.40
2019-03-18T22:09:08.792Z,2.77
2019-03-18T22:11:38.296Z,3.00
2019-03-18T22:14:07.827Z,2.40
2019-03-18T22:16:37.311Z,2.47
2019-03-18T22:19:06.767Z,1.93
2019-03-18T22:21:36.310Z,1.90
2019-03-18T22:24:05.188Z,3.00
2019-03-18T22:26:34.619Z,2.17
2019-03-18T22:29:04.116Z,2.10
2019-03-18T22:31:33.569Z,2.57
2019-03-18T22:34:03.032Z,2.00
2019-03-18T22:36:32.462Z,2.80
2019-03-18T22:39:01.913Z,3.27
2019-03-18T22:41:31.378Z,2.83
2019-03-18T22:44:00.829Z,2.33
2019-03-18T22:46:30.354Z,2.23
2019-03-18T22:48:59.805Z,2.60
2019-03-18T22:51:32.645Z,2.50
2019-03-18T22:54:02.143Z,2.40
2019-03-18T22:56:31.579Z,2.83
2019-03-18T22:59:01.045Z,2.73
2019-03-18T23:01:30.583Z,2.97
2019-03-18T23:04:00.032Z,3.03
2019-03-18T23:06:29.513Z,2.93
2019-03-18T23:08:58.922Z,2.80
2019-03-18T23:11:28.555Z,2.63
2019-03-18T23:13:58.006Z,3.17
2019-03-18T23:16:27.517Z,3.03
2019-03-18T23:18:56.995Z,2.87
2019-03-18T23:21:26.480Z,3.37
2019-03-18T23:23:55.936Z,3.10
2019-03-18T23:26:25.421Z,3.30
2019-03-18T23:28:54.937Z,3.30
2019-03-18T23:31:24.418Z,3.10
2019-03-18T23:33:53.896Z,3.20
2019-03-18T23:36:23.401Z,3.43
2019-03-18T23:38:52.850Z,3.20
2019-03-18T23:41:21.714Z,2.80
2019-03-18T23:43:51.153Z,3.53
2019-03-18T23:46:20.590Z,3.40
2019-03-18T23:48:50.067Z,2.80
2019-03-18T23:51:19.527Z,3.50
2019-03-18T23:53:48.984Z,3.70
2019-03-18T23:56:18.436Z,3.30
2019-03-18T23:58:47.879Z,3.63
